createdAt,value
2023-02-16T00:00:43.291Z,-1.70
2023-02-16T00:03:30.726Z,-1.80
2023-02-16T00:05:58.933Z,-1.80
2023-02-16T00:08:26.683Z,-1.90
2023-02-16T00:11:12.979Z,-1.60
2023-02-16T00:13:48.227Z,-1.80
2023-02-16T00:16:22.251Z,-1.80
2023-02-16T00:18:50.781Z,-1.80
2023-02-16T00:21:19.195Z,-1.80
2023-02-16T00:23:49.876Z,-1.80
2023-02-16T00:26:21.237Z,-1.80
2023-02-16T00:28:55.327Z,-1.90
2023-02-16T00:31:27.607Z,-1.80
2023-02-16T00:33:56.120Z,-1.80
2023-02-16T00:36:24.363Z,-1.90
2023-02-16T00:38:52.347Z,-1.90
2023-02-16T00:41:42.027Z,-1.80
2023-02-16T00:44:19.866Z,-1.90
2023-02-16T00:46:48.431Z,-1.90
2023-02-16T00:49:18.453Z,-1.90
2023-02-16T00:51:46.539Z,-1.90
2023-02-16T00:54:14.690Z,-2.00
2023-02-16T00:56:45.509Z,-2.00
2023-02-16T00:59:21.062Z,-2.10
2023-02-16T01:01:49.876Z,-2.10
2023-02-16T01:04:24.012Z,-2.10
2023-02-16T01:07:10.261Z,-0.90
2023-02-16T01:09:56.572Z,-2.10
2023-02-16T01:12:24.601Z,-2.10
2023-02-16T01:14:54.674Z,-2.10
2023-02-16T01:17:25.445Z,-2.10
2023-02-16T01:19:56.136Z,-1.10
2023-02-16T01:22:23.915Z,0.10
2023-02-16T01:24:51.594Z,-2.10
2023-02-16T01:27:19.307Z,-2.20
2023-02-16T01:29:46.738Z,-2.10
2023-02-16T01:32:16.871Z,-2.30
2023-02-16T01:34:44.376Z,-2.00
2023-02-16T01:37:16.618Z,-2.30
2023-02-16T01:39:45.068Z,-2.20
2023-02-16T01:42:29.789Z,-2.30
2023-02-16T01:45:04.527Z,-2.40
2023-02-16T01:47:44.671Z,-2.30
2023-02-16T01:50:23.296Z,-2.40
2023-02-16T01:53:12.192Z,-2.40
2023-02-16T01:55:45.238Z,-2.30
2023-02-16T01:58:27.364Z,-2.40
2023-02-16T02:00:57.261Z,-2.30
2023-02-16T02:03:48.307Z,-2.20
2023-02-16T02:06:21.089Z,-2.30
2023-02-16T02:09:02.473Z,-2.30
2023-02-16T02:11:54.506Z,-2.40
2023-02-16T02:14:29.533Z,-2.40
2023-02-16T02:17:04.483Z,-2.40
2023-02-16T02:19:51.229Z,-2.50
2023-02-16T02:22:52.406Z,-2.50
2023-02-16T02:25:41.826Z,-2.40
2023-02-16T02:28:31.610Z,-2.40
2023-02-16T02:31:15.499Z,-2.30
2023-02-16T02:34:13.006Z,-2.30
2023-02-16T02:36:51.469Z,-1.80
2023-02-16T02:39:35.695Z,-2.30
2023-02-16T02:42:30.135Z,-2.40
2023-02-16T02:45:42.602Z,-2.50
2023-02-16T02:48:10.325Z,-2.50
2023-02-16T02:51:26.416Z,-0.70
2023-02-16T02:54:14.800Z,-2.50
2023-02-16T02:57:07.795Z,-2.60
2023-02-16T03:00:16.067Z,-2.50
2023-02-16T03:02:48.627Z,-2.60
2023-02-16T03:05:20.377Z,-0.90
2023-02-16T03:07:50.600Z,-2.70
2023-02-16T03:10:46.118Z,-1.50
2023-02-16T03:13:20.989Z,-2.70
2023-02-16T03:15:50.097Z,-2.70
2023-02-16T03:18:36.404Z,-2.70
2023-02-16T03:21:23.532Z,-0.60
2023-02-16T03:24:10.298Z,-2.80
2023-02-16T03:26:56.968Z,-2.80
2023-02-16T03:29:26.602Z,-2.40
2023-02-16T03:31:56.732Z,-2.90
2023-02-16T03:34:25.472Z,-2.80
2023-02-16T03:36:58.700Z,-2.90
2023-02-16T03:39:27.917Z,-2.80
2023-02-16T03:41:57.292Z,-2.90
2023-02-16T03:44:25.194Z,-2.90
2023-02-16T03:46:52.868Z,-3.00
2023-02-16T03:49:20.816Z,-2.90
2023-02-16T03:51:48.440Z,-2.90
2023-02-16T03:54:15.750Z,-2.80
2023-02-16T03:56:43.580Z,-2.80
2023-02-16T03:59:10.854Z,-2.80
2023-02-16T04:01:38.483Z,-2.80
2023-02-16T04:04:05.871Z,-2.80
2023-02-16T04:06:33.572Z,-0.80
2023-02-16T04:09:01.286Z,-2.70
2023-02-16T04:11:47.704Z,-2.70
2023-02-16T04:14:15.245Z,-2.60
2023-02-16T04:16:42.908Z,-2.60
2023-02-16T04:19:11.328Z,-2.50
2023-02-16T04:21:39.659Z,-2.50
2023-02-16T04:24:07.703Z,-2.50
2023-02-16T04:26:35.453Z,-2.50
2023-02-16T04:29:03.024Z,-2.50
2023-02-16T04:31:30.844Z,-2.40
2023-02-16T04:33:58.194Z,-2.40
2023-02-16T04:36:25.664Z,-2.40
2023-02-16T04:38:52.984Z,-2.40
2023-02-16T04:41:20.666Z,-2.30
2023-02-16T04:43:48.096Z,-2.40
2023-02-16T04:46:15.629Z,-2.30
2023-02-16T04:48:43.072Z,-2.30
2023-02-16T04:51:10.719Z,-1.20
2023-02-16T04:53:38.021Z,-1.60
2023-02-16T04:56:09.078Z,-2.30
2023-02-16T04:58:36.441Z,-2.40
2023-02-16T05:01:04.892Z,-0.30
2023-02-16T05:03:32.531Z,-2.50
2023-02-16T05:06:00.337Z,-2.50
2023-02-16T05:08:27.836Z,-2.60
2023-02-16T05:11:13.911Z,-2.70
2023-02-16T05:13:59.503Z,-2.60
2023-02-16T05:16:27.091Z,-2.80
2023-02-16T05:18:56.869Z,-2.80
2023-02-16T05:21:31.982Z,-2.90
2023-02-16T05:24:11.526Z,-2.90
2023-02-16T05:26:40.204Z,-3.00
2023-02-16T05:29:08.326Z,-3.00
2023-02-16T05:31:36.320Z,-3.10
2023-02-16T05:34:04.224Z,-3.10
2023-02-16T05:36:32.376Z,-3.10
2023-02-16T05:39:02.229Z,-2.80
2023-02-16T05:41:29.791Z,-3.10
2023-02-16T05:44:00.048Z,-2.20
2023-02-16T05:46:29.947Z,-3.10
2023-02-16T05:48:57.598Z,-3.10
2023-02-16T05:51:25.381Z,-3.10
2023-02-16T05:53:52.969Z,-3.00
2023-02-16T05:56:21.378Z,-2.00
2023-02-16T05:58:49.542Z,-3.10
2023-02-16T06:01:18.240Z,-3.00
2023-02-16T06:06:14.454Z,-3.10
2023-02-16T06:08:41.819Z,-3.10
2023-02-16T06:11:29.369Z,-3.10
2023-02-16T06:13:58.780Z,-3.00
2023-02-16T06:16:28.406Z,-0.50
2023-02-16T06:18:56.433Z,-3.10
2023-02-16T06:21:25.459Z,-0.50
2023-02-16T06:23:53.745Z,-3.10
2023-02-16T06:26:21.587Z,-3.10
2023-02-16T06:28:48.995Z,-2.90
2023-02-16T06:31:16.956Z,-0.90
2023-02-16T06:33:45.170Z,-2.80
2023-02-16T06:36:12.872Z,-3.00
2023-02-16T06:38:40.541Z,-2.90
2023-02-16T06:41:08.297Z,-2.90
2023-02-16T06:43:35.837Z,-2.80
2023-02-16T06:46:04.007Z,-2.90
2023-02-16T06:48:32.028Z,-2.80
2023-02-16T06:51:00.175Z,-2.70
2023-02-16T06:53:27.976Z,-2.70
2023-02-16T06:55:55.734Z,-2.60
2023-02-16T06:58:23.177Z,-2.50
2023-02-16T07:00:51.078Z,-0.90
2023-02-16T07:03:18.539Z,-2.30
2023-02-16T07:05:49.098Z,-2.20
2023-02-16T07:08:16.593Z,-0.70
2023-02-16T07:10:50.010Z,-2.10
2023-02-16T07:13:18.141Z,-2.10
2023-02-16T07:15:46.028Z,-2.00
2023-02-16T07:18:13.686Z,-1.90
2023-02-16T07:20:41.530Z,-1.80
2023-02-16T07:23:09.006Z,-1.70
2023-02-16T07:25:37.243Z,-0.50
2023-02-16T07:28:04.876Z,-1.30
2023-02-16T07:30:32.626Z,0.00
2023-02-16T07:33:00.137Z,-0.10
2023-02-16T07:35:28.299Z,-1.10
2023-02-16T07:37:55.987Z,-1.00
2023-02-16T07:40:23.949Z,-0.70
2023-02-16T07:42:51.590Z,-0.50
2023-02-16T07:45:19.651Z,1.40
2023-02-16T07:47:46.951Z,-0.40
2023-02-16T07:50:14.588Z,-0.20
2023-02-16T07:52:42.184Z,0.00
2023-02-16T07:55:11.527Z,0.10
2023-02-16T07:57:40.213Z,0.40
2023-02-16T08:00:09.218Z,0.40
2023-02-16T08:02:41.290Z,0.70
2023-02-16T08:05:09.894Z,0.70
2023-02-16T08:07:37.479Z,0.80
2023-02-16T08:10:07.128Z,0.90
2023-02-16T08:12:34.817Z,1.10
2023-02-16T08:15:03.660Z,1.20
2023-02-16T08:17:31.316Z,1.40
2023-02-16T08:19:59.265Z,1.60
2023-02-16T08:22:26.753Z,1.80
2023-02-16T08:24:54.367Z,1.90
2023-02-16T08:27:21.787Z,1.90
2023-02-16T08:29:49.504Z,2.10
2023-02-16T08:32:16.918Z,2.10
2023-02-16T08:34:44.666Z,2.30
2023-02-16T08:37:15.198Z,2.80
2023-02-16T08:39:43.046Z,2.50
2023-02-16T08:42:13.599Z,2.70
2023-02-16T08:44:42.567Z,3.00
2023-02-16T08:47:11.113Z,3.40
2023-02-16T08:49:39.534Z,3.70
2023-02-16T08:52:07.056Z,3.90
2023-02-16T08:54:34.908Z,4.20
2023-02-16T08:57:03.148Z,4.50
2023-02-16T08:59:31.786Z,4.70
2023-02-16T09:02:00.321Z,4.60
2023-02-16T09:04:29.954Z,4.50
2023-02-16T09:06:58.591Z,4.40
2023-02-16T09:09:27.384Z,4.50
2023-02-16T09:11:54.923Z,4.50
2023-02-16T09:14:23.269Z,4.80
2023-02-16T09:16:50.947Z,5.00
2023-02-16T09:19:21.309Z,5.60
2023-02-16T09:21:56.412Z,6.00
2023-02-16T09:24:24.231Z,6.30
2023-02-16T09:26:52.168Z,6.60
2023-02-16T09:29:21.360Z,6.80
2023-02-16T09:31:49.638Z,7.60
2023-02-16T09:34:20.598Z,7.20
2023-02-16T09:36:48.908Z,7.50
2023-02-16T09:39:17.850Z,7.60
2023-02-16T09:42:18.005Z,7.70
2023-02-16T09:44:58.737Z,7.60
2023-02-16T09:47:31.542Z,7.20
2023-02-16T09:50:38.229Z,7.10
2023-02-16T09:53:22.963Z,7.30
2023-02-16T09:56:04.440Z,7.20
2023-02-16T09:58:49.806Z,7.40
2023-02-16T10:01:41.385Z,7.80
2023-02-16T10:04:18.020Z,8.50
2023-02-16T10:07:04.670Z,9.20
2023-02-16T10:09:33.644Z,9.80
2023-02-16T10:12:11.712Z,10.00
2023-02-16T10:14:46.666Z,10.30
2023-02-16T10:17:28.906Z,10.70
2023-02-16T10:20:13.502Z,10.30
2023-02-16T10:22:58.022Z,9.70
2023-02-16T10:25:37.323Z,9.40
2023-02-16T10:28:30.215Z,9.60
2023-02-16T10:33:52.008Z,10.10
2023-02-16T10:36:48.167Z,9.90
2023-02-16T10:39:41.245Z,10.50
2023-02-16T10:42:28.216Z,10.00
2023-02-16T10:47:40.898Z,10.20
2023-02-16T10:50:24.123Z,10.10
2023-02-16T10:52:56.480Z,10.30
2023-02-16T10:57:56.798Z,10.60
2023-02-16T11:00:48.605Z,10.60
2023-02-16T11:03:16.861Z,10.40
2023-02-16T11:05:44.530Z,10.30
2023-02-16T11:08:13.019Z,10.20
2023-02-16T11:10:51.037Z,10.40
2023-02-16T11:13:32.867Z,10.30
2023-02-16T11:16:07.106Z,10.40
2023-02-16T11:18:36.756Z,10.60
2023-02-16T11:21:07.315Z,11.00
2023-02-16T11:23:43.525Z,11.10
2023-02-16T11:26:11.965Z,11.60
2023-02-16T11:28:48.111Z,11.70
2023-02-16T11:31:24.951Z,11.90
2023-02-16T11:34:06.201Z,12.00
2023-02-16T11:36:37.560Z,12.50
2023-02-16T11:39:14.516Z,12.50
2023-02-16T11:42:20.821Z,12.30
2023-02-16T11:44:54.709Z,12.30
2023-02-16T11:47:35.190Z,12.50
2023-02-16T11:50:24.011Z,12.80
2023-02-16T11:52:54.574Z,13.00
2023-02-16T11:55:36.168Z,13.00
2023-02-16T11:58:17.744Z,12.70
2023-02-16T12:01:10.988Z,13.70
2023-02-16T12:04:00.252Z,14.90
2023-02-16T12:06:49.914Z,15.10
2023-02-16T12:09:45.456Z,16.00
2023-02-16T12:12:20.903Z,16.40
2023-02-16T12:15:35.559Z,17.00
2023-02-16T12:18:20.533Z,17.10
2023-02-16T12:21:05.345Z,17.80
2023-02-16T12:24:09.597Z,18.30
2023-02-16T12:26:47.169Z,18.00
2023-02-16T12:29:23.931Z,18.00
2023-02-16T12:32:33.995Z,17.90
2023-02-16T12:35:13.669Z,17.20
2023-02-16T12:38:04.970Z,16.10
2023-02-16T12:40:51.006Z,16.10
2023-02-16T12:43:39.947Z,15.60
2023-02-16T12:46:16.117Z,15.20
2023-02-16T12:48:50.006Z,15.00
2023-02-16T12:51:22.594Z,15.20
2023-02-16T12:54:11.493Z,15.20
2023-02-16T12:56:45.993Z,14.80
2023-02-16T12:59:21.275Z,15.00
2023-02-16T13:01:52.729Z,15.00
2023-02-16T13:04:58.631Z,14.80
2023-02-16T13:07:35.658Z,14.00
2023-02-16T13:10:41.715Z,15.40
2023-02-16T13:13:12.785Z,16.40
2023-02-16T13:15:52.509Z,17.00
2023-02-16T13:18:30.473Z,16.20
2023-02-16T13:21:09.497Z,16.50
2023-02-16T13:23:49.160Z,16.10
2023-02-16T13:26:18.237Z,15.20
2023-02-16T13:28:49.118Z,14.80
2023-02-16T13:31:36.224Z,15.10
2023-02-16T13:34:28.946Z,14.90
2023-02-16T13:37:16.968Z,15.00
2023-02-16T13:40:06.411Z,15.70
2023-02-16T13:43:13.884Z,16.00
2023-02-16T13:45:44.477Z,16.70
2023-02-16T13:48:23.127Z,16.40
2023-02-16T13:51:05.431Z,16.60
2023-02-16T13:53:40.810Z,16.70
2023-02-16T13:56:22.625Z,16.30
2023-02-16T13:58:53.154Z,16.50
2023-02-16T14:01:36.812Z,16.30
2023-02-16T14:04:14.204Z,16.10
2023-02-16T14:06:43.871Z,15.40
2023-02-16T14:09:14.707Z,14.20
2023-02-16T14:11:59.768Z,13.20
2023-02-16T14:14:31.492Z,12.70
2023-02-16T14:17:18.980Z,12.20
2023-02-16T14:20:09.375Z,12.60
2023-02-16T14:22:46.712Z,12.70
2023-02-16T14:25:23.862Z,12.40
2023-02-16T14:27:59.170Z,12.40
2023-02-16T14:30:39.599Z,12.50
2023-02-16T14:33:13.257Z,12.10
2023-02-16T14:36:17.747Z,11.70
2023-02-16T14:38:48.768Z,11.20
2023-02-16T14:41:23.076Z,10.80
2023-02-16T14:43:55.891Z,10.40
2023-02-16T14:46:47.814Z,10.20
2023-02-16T14:49:38.090Z,10.00
2023-02-16T14:52:43.589Z,9.70
2023-02-16T14:55:38.365Z,9.60
2023-02-16T14:58:16.102Z,9.40
2023-02-16T15:00:54.443Z,9.30
2023-02-16T15:03:25.811Z,9.10
2023-02-16T15:06:02.553Z,9.00
2023-02-16T15:08:37.448Z,8.80
2023-02-16T15:11:25.535Z,8.80
2023-02-16T15:13:54.145Z,8.70
2023-02-16T15:16:23.379Z,8.60
2023-02-16T15:18:55.372Z,8.50
2023-02-16T15:21:28.732Z,8.40
2023-02-16T15:24:01.058Z,8.30
2023-02-16T15:26:38.617Z,8.30
2023-02-16T15:29:27.304Z,8.10
2023-02-16T15:31:56.238Z,7.90
2023-02-16T15:34:35.471Z,7.70
2023-02-16T15:37:24.763Z,7.70
2023-02-16T15:40:15.064Z,7.50
2023-02-16T15:42:46.213Z,7.40
2023-02-16T15:45:29.845Z,7.40
2023-02-16T15:48:30.756Z,7.20
2023-02-16T15:51:09.204Z,6.70
2023-02-16T15:53:51.725Z,7.50
2023-02-16T15:56:28.108Z,6.30
2023-02-16T15:59:02.563Z,6.10
2023-02-16T16:01:35.421Z,6.10
2023-02-16T16:04:19.270Z,6.10
2023-02-16T16:06:48.327Z,6.00
2023-02-16T16:09:26.204Z,5.90
2023-02-16T16:11:57.694Z,5.90
2023-02-16T16:14:26.450Z,5.90
2023-02-16T16:16:54.983Z,6.50
2023-02-16T16:19:32.302Z,5.50
2023-02-16T16:22:00.382Z,5.50
2023-02-16T16:24:35.504Z,5.40
2023-02-16T16:27:07.282Z,5.40
2023-02-16T16:29:42.483Z,5.30
2023-02-16T16:32:26.307Z,5.40
2023-02-16T16:34:54.099Z,5.30
2023-02-16T16:37:37.444Z,5.20
2023-02-16T16:40:27.166Z,5.00
2023-02-16T16:43:04.515Z,5.00
2023-02-16T16:45:46.825Z,4.90
2023-02-16T16:48:29.599Z,4.90
2023-02-16T16:51:32.104Z,4.80
2023-02-16T16:54:33.978Z,4.70
2023-02-16T16:57:03.693Z,4.70
2023-02-16T16:59:31.390Z,4.60
2023-02-16T17:01:58.876Z,4.70
2023-02-16T17:04:28.009Z,4.80
2023-02-16T17:06:55.383Z,4.70
2023-02-16T17:09:23.678Z,5.40
2023-02-16T17:11:53.438Z,4.50
2023-02-16T17:14:27.562Z,4.40
2023-02-16T17:16:56.501Z,4.40
2023-02-16T17:19:30.216Z,4.50
2023-02-16T17:21:59.290Z,4.50
2023-02-16T17:24:28.999Z,4.60
2023-02-16T17:27:00.164Z,4.60
2023-02-16T17:29:29.796Z,4.70
2023-02-16T17:31:57.354Z,4.70
2023-02-16T17:34:29.554Z,4.70
2023-02-16T17:37:10.380Z,4.70
2023-02-16T17:39:40.834Z,4.80
2023-02-16T17:42:13.013Z,4.80
2023-02-16T17:44:41.834Z,4.80
2023-02-16T17:47:16.400Z,4.80
2023-02-16T17:49:45.016Z,4.70
2023-02-16T17:52:14.754Z,4.70
2023-02-16T17:54:46.122Z,4.70
2023-02-16T17:57:15.760Z,4.70
2023-02-16T17:59:44.404Z,5.20
2023-02-16T18:02:14.949Z,4.70
2023-02-16T18:04:45.482Z,4.70
2023-02-16T18:07:15.810Z,4.70
2023-02-16T18:09:45.796Z,4.70
2023-02-16T18:12:16.205Z,4.70
2023-02-16T18:14:45.082Z,4.70
2023-02-16T18:17:14.823Z,5.30
2023-02-16T18:19:44.255Z,4.50
2023-02-16T18:22:13.032Z,4.60
2023-02-16T18:24:40.910Z,4.60
2023-02-16T18:27:10.227Z,4.60
2023-02-16T18:29:38.101Z,4.60
2023-02-16T18:32:06.391Z,4.50
2023-02-16T18:34:35.826Z,4.50
2023-02-16T18:37:04.050Z,4.40
2023-02-16T18:39:32.016Z,4.50
2023-02-16T18:41:59.419Z,4.50
2023-02-16T18:44:27.662Z,4.40
2023-02-16T18:46:55.507Z,4.30
2023-02-16T18:49:24.033Z,4.30
2023-02-16T18:51:51.681Z,4.30
2023-02-16T18:54:19.652Z,4.30
2023-02-16T18:56:47.937Z,4.30
2023-02-16T18:59:16.369Z,4.30
2023-02-16T19:01:44.932Z,4.30
2023-02-16T19:04:13.034Z,4.20
2023-02-16T19:06:40.698Z,4.30
2023-02-16T19:09:23.123Z,4.40
2023-02-16T19:11:50.684Z,4.30
2023-02-16T19:14:19.838Z,4.30
2023-02-16T19:17:15.444Z,4.70
2023-02-16T19:19:48.326Z,4.30
2023-02-16T19:25:22.384Z,4.40
2023-02-16T19:27:52.822Z,4.30
2023-02-16T19:30:24.940Z,4.50
2023-02-16T19:32:53.333Z,4.50
2023-02-16T19:35:21.120Z,4.60
2023-02-16T19:37:49.009Z,4.40
2023-02-16T19:40:18.634Z,4.40
2023-02-16T19:46:33.281Z,4.50
2023-02-16T19:49:02.809Z,4.50
2023-02-16T19:51:32.736Z,4.50
2023-02-16T19:54:02.305Z,4.50
2023-02-16T19:56:31.057Z,4.40
2023-02-16T19:59:00.087Z,4.50
2023-02-16T20:01:29.135Z,4.60
2023-02-16T20:03:57.799Z,4.60
2023-02-16T20:06:31.080Z,4.70
2023-02-16T20:09:01.044Z,4.70
2023-02-16T20:11:31.489Z,4.70
2023-02-16T20:14:02.652Z,4.70
2023-02-16T20:16:32.350Z,4.80
2023-02-16T20:19:01.005Z,4.70
2023-02-16T20:21:31.644Z,4.80
2023-02-16T20:24:05.042Z,5.20
2023-02-16T20:26:39.340Z,4.90
2023-02-16T20:29:10.821Z,4.90
2023-02-16T20:31:49.865Z,4.90
2023-02-16T20:34:25.857Z,5.00
2023-02-16T20:36:56.833Z,4.90
2023-02-16T20:39:26.995Z,4.50
2023-02-16T20:42:01.601Z,4.90
2023-02-16T20:44:31.816Z,5.20
2023-02-16T20:47:04.752Z,4.90
2023-02-16T20:49:34.288Z,5.00
2023-02-16T20:52:05.393Z,5.20
2023-02-16T20:54:38.044Z,5.60
2023-02-16T20:57:24.703Z,5.10
2023-02-16T21:00:01.095Z,5.00
2023-02-16T21:09:57.355Z,5.00
2023-02-16T21:12:25.668Z,5.60
2023-02-16T21:17:22.592Z,5.00
2023-02-16T21:24:46.819Z,5.20
2023-02-16T21:29:43.316Z,5.20
2023-02-16T21:32:11.523Z,5.20
2023-02-16T21:34:39.022Z,5.30
2023-02-16T21:37:08.472Z,5.20
2023-02-16T21:39:55.949Z,5.20
2023-02-16T21:42:25.187Z,5.20
2023-02-16T21:45:12.600Z,5.20
2023-02-16T21:48:00.716Z,5.30
2023-02-16T21:50:29.774Z,5.30
2023-02-16T21:52:58.359Z,5.30
2023-02-16T21:55:44.730Z,5.60
2023-02-16T21:58:13.030Z,5.20
2023-02-16T22:00:41.644Z,5.20
2023-02-16T22:10:36.024Z,5.10
2023-02-16T22:13:04.269Z,5.30
2023-02-16T22:20:29.971Z,5.00
2023-02-16T22:22:59.380Z,4.90
2023-02-16T22:25:27.931Z,5.30
2023-02-16T22:27:56.113Z,4.90
2023-02-16T22:35:19.764Z,5.10
2023-02-16T22:40:15.428Z,5.20
2023-02-16T22:45:11.060Z,5.30
2023-02-16T22:47:39.168Z,5.40
2023-02-16T22:50:07.350Z,5.10
2023-02-16T22:55:06.125Z,5.30
2023-02-16T22:57:38.232Z,5.30
2023-02-16T23:00:13.477Z,5.20
2023-02-16T23:05:09.462Z,5.40
2023-02-16T23:30:09.082Z,5.10
2023-02-16T23:32:36.789Z,5.20
2023-02-16T23:40:00.490Z,5.60
